• Join FlightAware (Why Join?)
  • Login
  • US Flag 
 
04:57AM EST


 

Airport Tracker/Info


-or-


 

Live Flight TrackerFlight Track Log ✈ UAL780 ✈ 27-May-2013 ✈ KLAX - KIAH

Flight Track Log - Related Links

Times and Time Zones

All times are in EDT time to prevent confusion due to time zone crossing. See the UAL780 flight status page for this flight to view local times or setup timezone preferences in your user account.

Time Position Orientation Groundspeed Altitude Reporting Facility
EDT Latitude Longitude Course Direction KTS MPH feet Rate Location/Type
04:09PM 33.9167 -118.4667 107° East 201 231 2,100  Level Southern California TRACON
04:10PM 33.8858 -118.5042 225° Southwest 230 265 3,800 2,340 Climbing Los Angeles Center
04:11PM 33.8031 -118.5153 186° South 284 327 6,300 2,580 Climbing Los Angeles Center
04:12PM 33.6735 -118.5002 126° Southeast  Level FlightAware Approximate
04:12PM 33.7217 -118.5192 182° South 299 344 9,200  Level Los Angeles Center
04:13PM 33.5932 -118.3831 134° Southeast  Level FlightAware Approximate
04:13PM 33.6547 -118.4572 142° Southeast 332 382 11,100  Level Los Angeles Center
04:14PM 33.5375 -118.2501 107° East  Level FlightAware Approximate
04:14PM 33.5914 -118.3692 131° Southeast 354 407 13,600  Level Los Angeles Center
04:15PM 33.5347 -118.2447 119° Southeast 372 428 15,900 1,860 Climbing Los Angeles Center
04:16PM 33.5017 -118.1217 108° East 390 449 17,500 1,740 Climbing Los Angeles Center
04:17PM 33.4669 -117.9944 108° East 404 465 19,600 1,740 Climbing Los Angeles Center
04:18PM 33.4308 -117.8647 108° East 411 473 21,100 1,500 Climbing Los Angeles Center
04:19PM 33.3925 -117.7331 109° East 420 483 22,700 1,500 Climbing Los Angeles Center
04:20PM 33.3472 -117.5686 108° East 435 501 24,300 1,260 Climbing Los Angeles Center
04:21PM 33.3069 -117.4286 109° East 445 512 25,400 1,020 Climbing Los Angeles Center
04:22PM 33.2661 -117.2831 109° East 461 531 26,500 1,200 Climbing Los Angeles Center
04:23PM 33.2211 -117.1169 108° East 469 540 27,900 1,080 Climbing Los Angeles Center
04:24PM 33.1786 -116.9675 109° East 474 545 28,800 960 Climbing Los Angeles Center
04:25PM 33.1336 -116.8136 109° East 487 560 30,000 1,020 Climbing Los Angeles Center
04:26PM 33.0894 -116.6608 109° East 488 562 31,000 1,080 Climbing Los Angeles Center
04:27PM 33.0431 -116.4972 109° East 489 563 32,300 960 Climbing Los Angeles Center
04:28PM 33.0056 -116.3436 106° East 486 559 33,100 600 Climbing Los Angeles Center
04:29PM 32.9917 -116.1822 96° East 489 563 33,600 540 Climbing Los Angeles Center
04:30PM 32.9750 -116.0189 97° East 494 568 34,300 600 Climbing Los Angeles Center
04:32PM 32.9558 -115.8236 97° East 492 566 34,900 240 Climbing Los Angeles Center
04:33PM 32.9397 -115.6625 97° East 490 564 34,900  Level Los Angeles Center
04:34PM 32.9247 -115.4992 96° East 495 570 34,900  Level Los Angeles Center
04:35PM 32.9036 -115.3400 99° East 489 563 34,900  Level Los Angeles Center
04:36PM 32.8756 -115.1811 102° East 491 565 34,900  Level Los Angeles Center
04:37PM 32.8472 -115.0231 102° East 487 560 34,900  Level Los Angeles Center
04:38PM 32.8131 -114.8325 102° East 489 563 34,900  Level Los Angeles Center
04:39PM 32.7825 -114.6750 103° East 487 560 35,000  Climbing Los Angeles Center
04:40PM 32.7692 -114.5133 96° East 491 565 34,900 -60 Descending Los Angeles Center
04:41PM 32.7742 -114.3506 88° East 490 564 34,900  Level Los Angeles Center
04:42PM 32.7756 -114.1883 89° East 491 565 34,900  Level Los Angeles Center
04:43PM 32.7786 -113.9922 89° East 494 568 34,900  Level Los Angeles Center
04:44PM 32.7994 -113.8303 81° East 493 567 34,900  Level Los Angeles Center
04:45PM 32.8211 -113.6686 81° East 496 571 34,900  Level Los Angeles Center
04:46PM 32.8431 -113.5067 81° East 496 571 34,900  Level Los Angeles Center
04:46PM 32.8497 -113.4633 80° East 497 572 34,900  Level Albuquerque Center
04:47PM 32.8711 -113.3011 81° East 495 570 34,900  Level Albuquerque Center
04:48PM 32.8981 -113.1058 81° East 495 570 34,900  Level Albuquerque Center
04:49PM 32.9217 -112.9403 80° East 500 575 34,900  Level Albuquerque Center
04:50PM 32.9425 -112.7744 81° East 502 578 34,900  Level Albuquerque Center
04:51PM 32.9344 -112.6092 93° East 504 580 34,900  Level Albuquerque Center
04:53PM 32.9092 -112.4456 100° East 500 575 34,900  Level Albuquerque Center
04:54PM 32.8839 -112.2825 100° East 500 575 34,900  Level Albuquerque Center
04:55PM 32.8572 -112.0981 100° East 499 574 34,900  Level Albuquerque Center
04:56PM 32.8322 -111.9358 100° East 501 577 35,000  Climbing Albuquerque Center
04:57PM 32.8058 -111.7697 101° East 510 587 35,000  Level Albuquerque Center
04:58PM 32.7811 -111.6058 100° East 507 583 35,000  Level Albuquerque Center
04:59PM 32.7547 -111.4406 101° East 512 589 35,000  Level Albuquerque Center
05:00PM 32.7272 -111.2758 101° East 512 589 35,000  Level Albuquerque Center
05:01PM 32.6961 -111.0792 101° East 509 586 35,000  Level Albuquerque Center
05:02PM 32.6689 -110.9142 101° East 510 587 35,000  Level Albuquerque Center
05:03PM 32.6414 -110.7494 101° East 511 588 35,000  Level Albuquerque Center
05:04PM 32.6147 -110.5856 101° East 510 587 35,000  Level Albuquerque Center
05:05PM 32.5867 -110.4203 101° East 511 588 35,000  Level Albuquerque Center
05:06PM 32.5569 -110.2492 102° East 508 585 35,000  Level Albuquerque Center
05:07PM 32.5292 -110.0864 101° East 509 586 35,000  Level Albuquerque Center
05:08PM 32.4961 -109.8917 101° East 510 587 35,000  Level Albuquerque Center
05:09PM 32.4681 -109.7300 102° East 508 585 35,000 120 Level Albuquerque Center
05:10PM 32.4369 -109.5661 103° East 514 592 35,300 480 Climbing Albuquerque Center
05:11PM 32.4092 -109.4028 101° East 513 590 36,000 480 Climbing Albuquerque Center
05:12PM 32.3794 -109.2394 102° East 516 594 36,300 480 Climbing Albuquerque Center
05:13PM 32.3447 -109.0403 102° East 523 602 37,000 300 Climbing Albuquerque Center
05:14PM 32.3153 -108.8781 102° East 517 595 37,000  Level Albuquerque Center
05:15PM 32.2850 -108.7133 102° East 519 597 37,000  Level Albuquerque Center
05:16PM 32.2544 -108.5486 102° East 521 600 37,000  Level Albuquerque Center
05:17PM 32.2189 -108.3544 102° East 522 601 37,000 -60 Level Albuquerque Center
05:18PM 32.1878 -108.1894 103° East 520 598 36,900 -60 Descending Albuquerque Center
05:19PM 32.1567 -108.0258 103° East 516 594 36,900  Level Albuquerque Center
05:20PM 32.1250 -107.8617 103° East 516 594 36,900  Level Albuquerque Center
05:21PM 32.0944 -107.6981 102° East 515 593 37,000  Climbing Albuquerque Center
05:22PM 32.0642 -107.5347 102° East 516 594 37,000 -60 Level Albuquerque Center
05:23PM 32.0269 -107.3403 103° East 514 592 36,900 -60 Descending Albuquerque Center
05:24PM 31.9964 -107.1789 103° East 512 589 36,900  Level Albuquerque Center
05:25PM 31.9650 -107.0183 103° East 510 587 36,900  Level Albuquerque Center
05:27PM 31.9333 -106.8572 103° East 509 586 36,900  Level Albuquerque Center
05:28PM 31.9008 -106.6944 103° East 514 592 37,000  Climbing Albuquerque Center
05:29PM 31.8608 -106.5042 104° East 515 593 37,000 -60 Level Albuquerque Center
05:30PM 31.8289 -106.3389 103° East 518 596 36,900 -60 Descending Albuquerque Center
05:31PM 31.8031 -106.1736 100° East 513 590 36,900  Level Albuquerque Center
05:32PM 31.7828 -106.0083 98° East 510 587 36,900  Level Albuquerque Center
05:33PM 31.7625 -105.8436 98° East 510 587 36,900  Level Albuquerque Center
05:34PM 31.7431 -105.6800 98° East 507 583 36,900  Level Albuquerque Center
05:35PM 31.7186 -105.4814 98° East 511 588 36,900  Level Albuquerque Center
05:36PM 31.6986 -105.3150 98° East 512 589 36,900  Level Albuquerque Center
05:37PM 31.6778 -105.1514 98° East 507 583 37,000  Climbing Albuquerque Center
05:38PM 31.6578 -104.9825 98° East 513 590 36,900  Descending Albuquerque Center
05:39PM 31.6489 -104.8133 93° East 516 594 37,000  Climbing Albuquerque Center
05:40PM 31.6425 -104.6453 93° East 516 594 36,900 -60 Descending Albuquerque Center
05:41PM 31.6361 -104.4775 93° East 515 593 36,900  Level Albuquerque Center
05:42PM 31.6333 -104.3086 91° East 516 594 36,900  Level Albuquerque Center
05:43PM 31.6325 -104.1417 90° East 514 592 37,000  Climbing Albuquerque Center
05:44PM 31.6283 -103.9394 91° East 515 593 36,900 -60 Descending Albuquerque Center
05:45PM 31.6261 -103.7714 91° East 515 593 36,900  Level Albuquerque Center
05:46PM 31.6217 -103.6167 92° East 512 589 37,000  Climbing Albuquerque Center
05:47PM 31.6172 -103.4408 92° East 511 588 36,900 -60 Descending Albuquerque Center
05:48PM 31.6131 -103.2739 92° East 512 589 36,900  Level Albuquerque Center
05:49PM 31.6078 -103.1075 92° East 510 587 36,900  Level Albuquerque Center
05:50PM 31.6036 -102.9089 91° East 508 585 36,900  Level Albuquerque Center
05:51PM 31.6008 -102.7417 91° East 510 587 37,000  Climbing Albuquerque Center
05:52PM 31.5906 -102.5778 94° East 505 581 36,900 -60 Descending Albuquerque Center
05:53PM 31.5747 -102.4125 96° East 507 583 36,900  Level Albuquerque Center
05:54PM 31.5572 -102.2442 97° East 511 588 36,900  Level Albuquerque Center
05:55PM 31.5422 -102.0764 96° East 514 592 36,900  Level Albuquerque Center
05:56PM 31.5231 -101.9094 98° East 513 590 36,900  Level Albuquerque Center
05:57PM 31.5036 -101.7436 98° East 512 589 36,900  Level Albuquerque Center
05:59PM 31.4481 -101.5567 109° East 506 582 36,900  Level Houston Center
06:00PM 31.3867 -101.4094 116° Southeast 504 580 36,900  Level Houston Center
06:01PM 31.3161 -101.2675 120° Southeast 504 580 36,900  Level Houston Center
06:02PM 31.2428 -101.1283 122° Southeast 502 578 36,900  Level Houston Center
06:03PM 31.1919 -100.9697 111° Southeast 509 586 37,000  Climbing Houston Center
06:04PM 31.1522 -100.7800 104° East 500 575 37,000 -60 Level Houston Center
06:05PM 31.1453 -100.6156 93° East 503 579 36,900 -60 Descending Houston Center
06:06PM 31.1347 -100.4533 94° East 500 575 36,900  Level Houston Center
06:07PM 31.1256 -100.2919 94° East 499 574 36,900  Level Houston Center
06:08PM 31.1169 -100.1300 94° East 499 574 37,000  Climbing Houston Center
06:09PM 31.1067 -99.9686 94° East 498 573 36,900 -60 Descending Houston Center
06:10PM 31.0969 -99.8081 94° East 497 572 36,900  Level Houston Center
06:11PM 31.0856 -99.6142 94° East 499 574 36,900  Level Houston Center
06:12PM 31.0744 -99.4528 95° East 499 574 36,900  Level Houston Center
06:13PM 31.0636 -99.2922 94° East 499 574 36,900 -300 Level Houston Center
06:14PM 31.0531 -99.1283 94° East 497 572 36,400 -600 Descending Houston Center
06:15PM 31.0417 -98.9681 95° East 493 567 35,700 -840 Descending Houston Center
06:16PM 31.0317 -98.8122 94° East 481 554 34,700 -1,440 Descending Houston Center
06:17PM 31.0200 -98.6589 95° East 471 542 32,800 -2,040 Descending Houston Center
06:18PM 31.0083 -98.4825 94° East 466 536 30,500 -1,620 Descending Houston Center
06:19PM 30.9972 -98.3333 95° East 459 528 29,500 -780 Descending Houston Center
06:20PM 30.9844 -98.1914 96° East 440 506 29,000 -300 Descending Houston Center
06:21PM 30.9753 -98.0497 94° East 434 499 29,000  Level Houston Center
06:22PM 30.9644 -97.9072 95° East 438 504 29,000  Level Houston Center
06:23PM 30.9531 -97.7653 95° East 437 503 29,000  Level Houston Center
06:24PM 30.9417 -97.6242 95° East 434 499 29,000  Level Houston Center
06:25PM 30.9283 -97.4603 95° East 435 501 29,000 -60 Level Houston Center
06:26PM 30.9183 -97.3369 95° East 436 502 28,900 -540 Descending Houston Center
06:27PM 30.8881 -97.1714 102° East 503 579 28,000 -900 Descending Houston Center
06:29PM 30.8431 -97.0300 110° East 472 543 27,100 -960 Descending Houston Center
06:30PM 30.7961 -96.8897 111° Southeast 465 535 26,100 -1,020 Descending Houston Center
06:31PM 30.7419 -96.7272 111° Southeast 463 533 25,000 -960 Descending Houston Center
06:32PM 30.6969 -96.5908 111° Southeast 452 520 24,200 -780 Descending Houston Center
06:33PM 30.6525 -96.4528 110° East 453 521 23,500 -2,100 Descending Houston Center
06:34PM 30.6083 -96.3217 111° Southeast 436 502 19,900 -3,660 Descending Houston Center
06:34PM 30.5797 -96.2386 112° Southeast 418 481 17,600 -3,360 Descending Houston Center
06:35PM 30.5658 -96.1964 111° Southeast 417 480 16,500 -3,360 Descending Houston Center
06:35PM 30.5411 -96.1292 113° Southeast 391 450 14,500 -3,300 Descending Houston Center
06:36PM 30.5272 -96.0797 108° East 388 447 13,100 -3,180 Descending Houston Center
06:36PM 30.5042 -96.0169 113° Southeast 371 427 11,300 -2,280 Descending Houston Center
06:37PM 30.4894 -95.9753 112° Southeast 372 428 10,800 -1,020 Descending Houston Center
06:37PM 30.4678 -95.9097 111° Southeast 326 375 10,300 -900 Descending Houston Center
06:38PM 30.4497 -95.8572 112° Southeast 327 376 9,900 -900 Descending Houston Center
06:38PM 30.4219 -95.8425 155° Southeast 284 327 9,500 -1,200 Descending Houston Center
06:39PM 30.3728 -95.8364 174° South 287 330 8,700 -1,380 Descending Houston Center
06:39PM 30.3414 -95.8325 174° South 278 320 8,100 -1,260 Descending Houston Center
06:40PM 30.2983 -95.8169 163° South 278 320 7,400 -1,320 Descending Houston Center
06:40PM 30.2692 -95.7972 150° Southeast 271 312 6,800 -1,260 Descending Houston Center
06:41PM 30.2344 -95.7733 149° Southeast 268 308 6,100 -900 Descending Houston Center
06:41PM 30.2097 -95.7439 134° Southeast 273 314 5,900 -840 Descending Houston Center
06:42PM 30.1878 -95.7064 124° Southeast 270 311 5,300 -1,260 Descending Houston Center
06:42PM 30.1578 -95.6775 140° Southeast 264 304 4,500 -1,080 Descending Houston Center
06:43PM 30.1322 -95.6517 139° Southeast 262 302 4,200 -660 Descending Houston Center
06:43PM 30.1097 -95.6322 143° Southeast 218 251 3,900 -900 Descending Houston Center
06:44PM 30.0653 -95.5822 136° Southeast 208 239 3,000 -540 Descending Houston Center
06:45PM 30.0469 -95.5433 119° Southeast 211 243 3,000  Level Houston Center
06:45PM 30.0392 -95.5247 116° Southeast 193 222 3,000  Level Houston Center